Latest Weather Observations for Keith West

IDS60801

Issued at 5:35 pm CST Sunday 31 August 2014 (issued every 30 minutes, with the page automatically refreshed every 10 minutes)

About weather observations | Map of weather stations | Latest weather observations for SA | Other Formats
Station Details ID: 025557 Name: MUNKORA Lat: -36.11 Lon: 140.33 Height: 27.0 m
Data from the previous 72 hours. | See also: Recent months for locations in South Australia
Date/Time
CST
Temp
°C
App
Temp
°C
Dew
Point
Rel
Hum
%
Delta-T
°C
Wind Press
QNH
hPa
Press
MSL
hPa
Rain
since 9 am
mm
Dir
 
Spd
km/h
Gust
km/h
Spd
kts
Gust
kts
31/05:30pm 19.1 14.0 3.3 35 7.4 N 19 22 10 12 1009.6 1009.6 0.0
31/05:00pm 19.3 14.7 3.9 36 7.3 N 17 22 9 12 1009.0 1009.0 0.0
31/04:30pm 19.2 16.0 6.7 44 6.3 N 13 17 7 9 1009.5 1009.5 0.0
31/04:00pm 18.9 15.6 6.4 44 6.2 N 13 15 7 8 1010.1 1010.1 0.0
31/03:30pm 19.4 16.9 8.4 49 5.7 N 11 13 6 7 1010.6 1010.6 0.0
31/03:00pm 20.0 16.5 7.1 43 6.6 NNW 15 19 8 10 1011.2 1011.2 0.0
31/02:30pm 20.9 17.2 6.1 38 7.4 N 15 20 8 11 1011.2 1011.2 0.0
31/02:00pm 21.2 15.8 4.7 34 8.1 N 22 30 12 16 1011.5 1011.5 0.0
31/01:30pm 21.0 15.4 3.7 32 8.3 N 22 32 12 17 1012.0 1012.0 0.0
31/01:00pm 20.5 14.9 3.7 33 8.0 NNW 22 30 12 16 1012.4 1012.4 0.0
31/12:30pm 21.0 14.4 2.3 29 8.7 NNW 26 35 14 19 1013.1 1013.1 0.0
31/12:00pm 20.9 14.7 4.5 34 8.0 NNW 26 35 14 19 1013.6 1013.6 0.0
31/11:30am 21.6 15.5 4.7 33 8.3 NNW 26 37 14 20 1014.0 1014.0 0.0
31/11:00am 20.3 16.0 7.0 42 6.8 N 19 26 10 14 1014.2 1014.2 0.0
31/10:30am 19.2 15.0 5.6 41 6.7 NNW 17 24 9 13 1014.4 1014.4 0.0
31/10:00am 19.2 15.0 7.3 46 6.0 N 19 28 10 15 1014.8 1014.8 0.0
31/09:30am 17.1 12.6 6.3 49 5.3 N 19 24 10 13 1015.3 1015.3 0.0
31/09:00am 16.5 13.5 7.7 56 4.4 N 13 19 7 10 1015.7 1015.7 0.0
31/08:30am 12.9 11.0 7.4 69 2.7 N 7 9 4 5 1015.9 1015.9 0.0
31/08:00am 12.3 9.3 5.9 65 3.0 N 11 13 6 7 1016.0 1016.0 0.0
31/07:30am 8.8 6.3 4.6 75 1.9 N 7 9 4 5 1016.0 1016.0 0.0
31/07:00am 8.6 5.6 4.0 73 2.0 NNE 9 11 5 6 1015.7 1015.7 0.0
31/06:30am 9.1 6.0 3.7 69 2.3 NNE 9 11 5 6 1015.8 1015.8 0.0
31/06:00am 9.8 6.0 3.8 66 2.6 NNE 13 17 7 9 1015.5 1015.5 0.0
31/05:30am 10.3 6.5 3.8 64 2.9 NNE 13 19 7 10 1015.3 1015.3 0.0
31/05:00am 9.5 5.8 4.3 70 2.3 NNE 13 15 7 8 1015.4 1015.4 0.0
31/04:30am 9.2 5.5 4.2 71 2.2 NE 13 15 7 8 1015.7 1015.7 0.0
31/04:00am 9.5 5.4 4.3 70 2.3 NNE 15 17 8 9 1015.9 1015.9 0.0
31/03:30am 9.0 4.8 4.0 71 2.2 NNE 15 15 8 8 1015.9 1015.9 0.0
31/03:00am 9.4 5.6 4.0 69 2.4 NE 13 19 7 10 1016.1 1016.1 0.0
31/02:30am 9.3 5.5 3.9 69 2.4 NNE 13 15 7 8 1016.4 1016.4 0.0
31/02:00am 8.9 5.4 3.7 70 2.3 NNE 11 15 6 8 1016.6 1016.6 0.0
31/01:30am 8.7 5.2 3.7 71 2.2 NNE 11 13 6 7 1016.9 1016.9 0.0
31/01:00am 9.0 5.3 4.2 72 2.1 NE 13 15 7 8 1017.1 1017.1 0.0
31/12:30am 9.5 5.8 4.7 72 2.1 NNE 13 15 7 8 1017.3 1017.3 0.0
31/12:00am 8.0 4.8 4.9 81 1.4 NE 11 13 6 7 1017.5 1017.5 0.0
 
Date/Time
CST
Temp
°C
App
Temp
°C
Dew
Point
Rel
Hum
%
Delta-T
°C
Wind Press
QNH
hPa
Press
MSL
hPa
Rain
since 9 am
mm
Dir
 
Spd
km/h
Gust
km/h
Spd
kts
Gust
kts
30/11:30pm 6.8 5.3 4.8 87 0.9 NE 2 4 1 2 1017.7 1017.7 0.0
30/11:00pm 6.7 5.2 4.9 88 0.8 N 2 4 1 2 1018.0 1018.0 0.0
30/10:30pm 7.3 5.8 5.0 85 1.0 N 2 4 1 2 1018.4 1018.4 0.0
30/10:00pm 7.5 5.6 5.1 85 1.1 N 4 6 2 3 1018.8 1018.9 0.0
30/09:30pm 9.8 7.2 6.2 78 1.7 ESE 9 9 5 5 1018.9 1019.0 0.0
30/09:00pm 12.0 10.1 7.5 74 2.2 ESE 7 9 4 5 1019.1 1019.2 0.0
30/08:30pm 11.3 9.5 7.0 75 2.0 SSE 6 7 3 4 1019.3 1019.4 0.0
30/08:00pm 12.6 10.7 6.9 68 2.7 SW 6 9 3 5 1019.4 1019.5 0.0
30/07:30pm 12.6 9.7 6.6 67 2.9 ENE 11 13 6 7 1019.1 1019.2 0.0
30/07:00pm 14.8 13.1 7.6 62 3.6 NE 6 6 3 3 1019.2 1019.3 0.0
30/06:30pm 14.1 12.5 8.9 71 2.6 E 7 9 4 5 1019.2 1019.3 0.0
30/06:00pm 16.8 15.8 10.9 68 3.2 E 7 9 4 5 1019.0 1019.1 0.0
30/05:30pm 20.2 19.9 8.5 47 6.1 CALM 0 0 0 0 1018.7 1018.8 0.0
30/05:00pm 22.0 22.7 13.4 58 5.0 W 2 6 1 3 1018.7 1018.8 0.0
30/04:30pm 23.2 24.1 13.9 56 5.4 WNW 2 6 1 3 1018.9 1019.0 0.0
30/04:00pm 23.6 23.1 10.6 44 7.2 W 4 6 2 3 1019.1 1019.2 0.0
30/03:30pm 23.7 21.8 6.5 33 8.8 WNW 6 7 3 4 1019.2 1019.3 0.0
30/03:00pm 23.6 21.8 7.3 35 8.5 W 6 15 3 8 1019.5 1019.6 0.0
30/02:30pm 24.1 21.8 5.0 29 9.6 W 6 11 3 6 1019.7 1019.8 0.0
30/02:00pm 23.8 21.6 6.1 32 9.0 WNW 7 11 4 6 1020.1 1020.2 0.0
30/01:30pm 23.4 20.4 5.8 32 8.9 NNW 11 19 6 10 1020.5 1020.6 0.0
30/01:00pm 23.2 19.9 6.5 34 8.6 NW 13 19 7 10 1021.0 1021.1 0.0
30/12:30pm 22.6 19.8 6.8 36 8.1 NW 11 17 6 9 1021.6 1021.7 0.0
30/12:00pm 22.2 20.2 8.7 42 7.1 NNW 9 13 5 7 1022.1 1022.2 0.0
30/11:30am 21.3 19.9 9.5 47 6.3 NNW 7 13 4 7 1022.7 1022.8 0.0
30/11:00am 20.4 19.3 9.9 51 5.6 NW 6 11 3 6 1023.1 1023.2 0.0
30/10:30am 18.9 17.6 9.9 56 4.8 N 7 11 4 6 1023.4 1023.5 0.0
30/10:00am 17.5 16.4 9.9 61 4.0 N 6 9 3 5 1023.8 1023.9 0.0
30/09:30am 15.4 14.0 8.9 65 3.3 N 6 7 3 4 1023.9 1024.0 0.0
30/09:00am 13.4 11.4 8.7 73 2.3 NNE 9 15 5 8 1024.0 1024.1 0.0
30/08:30am 11.9 10.0 7.6 75 2.1 NNE 7 11 4 6 1024.1 1024.2 0.0
30/08:00am 10.1 7.3 7.0 81 1.5 NE 11 15 6 8 1024.2 1024.3 0.0
30/07:30am 8.8 5.5 6.3 84 1.1 NE 13 19 7 10 1024.2 1024.3 0.0
30/07:00am 7.8 5.1 5.6 86 1.0 NE 9 13 5 7 1024.3 1024.4 0.0
30/06:30am 7.3 4.9 5.3 87 0.9 NE 7 13 4 7 1024.4 1024.5 0.0
30/06:00am 7.4 5.0 5.4 87 0.9 NE 7 15 4 8 1024.1 1024.2 0.0
30/05:30am 7.7 5.0 5.5 86 1.0 NE 9 15 5 8 1024.0 1024.1 0.0
30/05:00am 7.5 4.8 5.5 87 0.9 ENE 9 15 5 8 1024.0 1024.1 0.0
30/04:30am 6.4 3.5 4.9 90 0.7 ENE 9 13 5 7 1023.9 1024.0 0.0
30/04:00am 5.0 2.7 2.9 86 0.9 NE 4 4 2 2 1023.9 1024.0 0.0
30/03:30am 6.2 3.9 5.0 92 0.5 ENE 6 7 3 4 1024.0 1024.1 0.0
30/03:00am 5.0 2.6 4.4 96 0.3 E 6 6 3 3 1024.1 1024.2 0.0
30/02:30am 3.9 2.1 3.2 95 0.3 SE 2 4 1 2 1024.5 1024.6 0.0
30/02:00am 4.3 2.5 3.6 95 0.3 SE 2 4 1 2 1024.8 1024.9 0.0
30/01:30am 4.6 3.3 3.9 95 0.3 CALM 0 0 0 0 1024.8 1024.9 0.0
30/01:00am 4.8 3.5 4.1 95 0.3 CALM 0 0 0 0 1024.8 1024.9 0.0
30/12:30am 5.4 4.2 4.7 95 0.3 CALM 0 0 0 0 1024.9 1025.0 0.0
30/12:00am 6.0 4.6 5.3 95 0.3 SSE 2 4 1 2 1025.0 1025.1 0.0
 
Date/Time
CST
Temp
°C
App
Temp
°C
Dew
Point
Rel
Hum
%
Delta-T
°C
Wind Press
QNH
hPa
Press
MSL
hPa
Rain
since 9 am
mm
Dir
 
Spd
km/h
Gust
km/h
Spd
kts
Gust
kts
29/11:30pm 5.7 4.5 4.7 93 0.4 CALM 0 0 0 0 1025.2 1025.3 0.0
29/11:00pm 6.6 5.6 5.4 92 0.5 CALM 0 0 0 0 1025.4 1025.5 0.0
29/10:30pm 7.5 6.6 6.1 91 0.6 CALM 0 0 0 0 1025.6 1025.7 0.0
29/10:00pm 7.5 6.4 5.3 86 1.0 CALM 0 2 0 1 1025.7 1025.8 0.0
29/09:30pm 9.1 7.9 6.4 83 1.2 SSE 2 2 1 1 1025.8 1025.9 0.0
29/09:00pm 10.3 8.8 6.6 78 1.7 S 4 7 2 4 1025.8 1025.9 0.0
29/08:30pm 12.3 10.3 8.6 78 1.8 SE 9 9 5 5 1025.7 1025.8 0.0
29/08:00pm 12.7 11.1 8.8 77 2.0 SE 7 9 4 5 1025.7 1025.8 0.0
29/07:30pm 13.7 12.2 9.2 74 2.3 SE 7 7 4 4 1025.7 1025.8 0.0
29/07:00pm 14.0 12.9 9.8 76 2.2 SSE 6 7 3 4 1025.6 1025.7 0.0
29/06:30pm 13.7 12.7 9.0 73 2.4 SSE 4 6 2 3 1025.5 1025.6 0.0
29/06:00pm 15.7 14.9 10.9 73 2.5 SSE 6 6 3 3 1025.4 1025.5 0.0
29/05:30pm 18.7 18.4 11.5 63 3.9 SSE 4 6 2 3 1025.3 1025.4 0.0
29/05:00pm 20.1 20.1 12.3 61 4.4 SE 4 6 2 3 1025.2 1025.3 0.0
29/04:30pm 21.1 20.5 11.7 55 5.2 SE 6 6 3 3 1025.3 1025.4 0.0
29/04:00pm 22.8 22.4 9.9 44 7.0 SSW 2 6 1 3 1025.4 1025.5 0.0
29/03:30pm 22.4 21.3 9.9 45 6.8 SW 6 11 3 6 1025.5 1025.6 0.0
29/03:00pm 22.7 22.4 10.2 45 6.8 SSE 2 6 1 3 1025.7 1025.8 0.0
29/02:30pm 23.2 22.8 9.9 43 7.2 S 2 7 1 4 1025.9 1026.0 0.0
29/02:00pm 22.1 21.2 9.3 44 6.9 SSE 4 7 2 4 1026.2 1026.3 0.0
29/01:30pm 21.9 20.8 9.8 46 6.5 SSE 6 11 3 6 1026.6 1026.7 0.0
29/01:00pm 21.8 20.5 9.3 45 6.7 SE 6 7 3 4 1026.8 1026.9 0.0
29/12:30pm 22.1 22.0 9.3 44 6.8 CALM 0 0 0 0 1027.2 1027.3 0.0
29/12:00pm 21.3 20.7 8.9 45 6.5 W 2 6 1 3 1027.8 1027.9 0.0
29/11:30am 20.6 20.7 10.1 51 5.6 CALM 0 4 0 2 1028.2 1028.3 0.0
29/11:00am 20.0 19.8 10.4 54 5.2 E 2 6 1 3 1028.5 1028.6 0.0
29/10:30am 18.9 18.4 10.7 59 4.4 NNE 4 7 2 4 1028.6 1028.7 0.0
29/10:00am 17.7 17.4 11.5 67 3.4 NNE 4 6 2 3 1028.8 1028.9 0.0
29/09:30am 15.7 15.7 11.3 75 2.3 N 2 6 1 3 1029.1 1029.2 0.0
29/09:00am 13.0 12.9 9.6 80 1.7 CALM 0 0 0 0 1029.1 1029.2 0.0
29/08:30am 10.2 9.8 8.3 88 0.9 CALM 0 0 0 0 1029.2 1029.3 0.0
29/08:00am 7.7 7.0 6.8 94 0.4 CALM 0 0 0 0 1029.1 1029.2 0.0
29/07:30am 4.2 2.8 3.5 95 0.3 CALM 0 0 0 0 1028.6 1028.7 0.0
29/07:00am 1.8 -0.8 1.2 96 0.2 N 4 4 2 2 1028.3 1028.4 0.0
29/06:30am 2.6 0.9 2.0 96 0.2 CALM 0 0 0 0 1028.1 1028.2 0.0
29/06:00am 3.1 1.5 2.5 96 0.2 CALM 0 2 0 1 1027.9 1028.0 0.0
29/05:30am 3.0 1.0 2.4 96 0.2 ENE 2 4 1 2 1027.8 1027.9 0.0
29/05:00am 3.5 1.2 2.9 96 0.2 ENE 4 4 2 2 1027.9 1028.0 0.0
29/04:30am 2.9 1.3 2.3 96 0.2 CALM 0 0 0 0 1027.7 1027.8 0.0
29/04:00am 3.0 1.4 2.3 95 0.3 CALM 0 0 0 0 1027.8 1027.9 0.0
29/03:30am 3.4 1.5 2.7 95 0.3 E 2 4 1 2 1027.9 1028.0 0.0
29/03:00am 4.0 1.8 3.3 95 0.3 ESE 4 6 2 3 1028.0 1028.1 0.0
29/02:30am 4.3 1.8 3.6 95 0.3 ESE 6 6 3 3 1028.2 1028.3 0.0
29/02:00am 4.6 2.9 3.9 95 0.3 ESE 2 4 1 2 1028.3 1028.4 0.0
29/01:30am 4.6 2.5 3.7 94 0.4 ESE 4 4 2 2 1028.4 1028.5 0.0
29/01:00am 4.9 2.8 4.0 94 0.4 ESE 4 4 2 2 1028.4 1028.5 0.0
29/12:30am 4.4 2.6 3.2 92 0.5 ESE 2 4 1 2 1028.3 1028.4 0.0
29/12:00am 4.9 2.8 3.9 93 0.4 ESE 4 6 2 3 1028.4 1028.5 0.0
 
Date/Time
CST
Temp
°C
App
Temp
°C
Dew
Point
Rel
Hum
%
Delta-T
°C
Wind Press
QNH
hPa
Press
MSL
hPa
Rain
since 9 am
mm
Dir
 
Spd
km/h
Gust
km/h
Spd
kts
Gust
kts
28/11:30pm 5.2 2.6 4.0 92 0.5 ESE 7 7 4 4 1028.2 1028.3 0.0
28/11:00pm 5.8 3.5 4.6 92 0.5 SSW 6 6 3 3 1028.2 1028.3 0.0
28/10:30pm 6.0 4.8 4.6 91 0.6 CALM 0 0 0 0 1028.4 1028.5 0.0
28/10:00pm 6.2 5.0 4.5 89 0.7 CALM 0 0 0 0 1028.6 1028.7 0.0
28/09:30pm 6.8 5.3 5.1 89 0.7 SSW 2 4 1 2 1028.5 1028.6 0.0
28/09:00pm 8.1 7.3 6.6 90 0.7 CALM 0 0 0 0 1028.5 1028.6 0.0
28/08:30pm 8.3 7.5 6.3 87 0.9 CALM 0 0 0 0 1028.5 1028.6 0.0
28/08:00pm 8.5 7.5 5.6 82 1.3 CALM 0 0 0 0 1028.4 1028.5 0.0
28/07:30pm 10.8 9.7 7.1 78 1.7 SSW 2 4 1 2 1028.2 1028.3 0.0
28/07:00pm 13.6 11.4 8.0 69 2.8 S 9 11 5 6 1027.9 1028.0 0.0
28/06:30pm 13.8 11.3 8.2 69 2.8 SSW 11 15 6 8 1027.7 1027.8 0.0
28/06:00pm 15.3 12.2 8.8 65 3.3 SSW 15 17 8 9 1027.6 1027.7 0.0

Other Formats:

Comma delimited format used in spreadsheet applications
http://www.bom.gov.au/fwo/IDS60801/IDS60801.95815.axf

JavaScript Object Notation format (JSON) in row-major order
http://www.bom.gov.au/fwo/IDS60801/IDS60801.95815.json